sensor_id;sensor_type;location;lat;lon;timestamp;pressure;altitude;pressure_sealevel;temperature;humidity
72024;BME280;59889;50.700;5.440;2023-07-29T00:00:05;99234.22;;;25.45;30.82
72024;BME280;59889;50.700;5.440;2023-07-29T00:02:30;99227.97;;;25.25;30.77
72024;BME280;59889;50.700;5.440;2023-07-29T00:04:55;99226.31;;;25.70;30.82
72024;BME280;59889;50.700;5.440;2023-07-29T00:07:21;99224.01;;;25.42;30.84
72024;BME280;59889;50.700;5.440;2023-07-29T00:09:47;99240.73;;;25.44;30.84
72024;BME280;59889;50.700;5.440;2023-07-29T00:12:13;99258.65;;;25.70;30.82
72024;BME280;59889;50.700;5.440;2023-07-29T00:14:39;99263.79;;;25.50;30.78
72024;BME280;59889;50.700;5.440;2023-07-29T00:17:05;99265.63;;;25.69;30.82
72024;BME280;59889;50.700;5.440;2023-07-29T00:19:30;99264.28;;;25.47;30.79
72024;BME280;59889;50.700;5.440;2023-07-29T00:21:56;99262.74;;;25.49;30.77
72024;BME280;59889;50.700;5.440;2023-07-29T00:24:22;99259.31;;;25.73;30.76
72024;BME280;59889;50.700;5.440;2023-07-29T00:26:48;99255.07;;;25.55;30.71
72024;BME280;59889;50.700;5.440;2023-07-29T00:29:14;99252.65;;;25.51;30.74
72024;BME280;59889;50.700;5.440;2023-07-29T00:31:40;99249.24;;;25.69;30.81
72024;BME280;59889;50.700;5.440;2023-07-29T00:34:05;99250.45;;;25.19;30.82
72024;BME280;59889;50.700;5.440;2023-07-29T00:36:31;99253.75;;;25.75;30.76
72024;BME280;59889;50.700;5.440;2023-07-29T00:38:57;99254.63;;;25.46;30.81
72024;BME280;59889;50.700;5.440;2023-07-29T00:41:23;99250.99;;;25.69;30.81
72024;BME280;59889;50.700;5.440;2023-07-29T00:43:49;99250.44;;;25.42;30.84
72024;BME280;59889;50.700;5.440;2023-07-29T00:46:15;99247.70;;;25.46;30.79
72024;BME280;59889;50.700;5.440;2023-07-29T00:48:41;99240.20;;;25.93;30.80
72024;BME280;59889;50.700;5.440;2023-07-29T00:51:06;99245.22;;;25.40;30.88
72024;BME280;59889;50.700;5.440;2023-07-29T00:53:32;99245.04;;;25.42;30.86
72024;BME280;59889;50.700;5.440;2023-07-29T00:55:59;99247.50;;;25.61;30.90
72024;BME280;59889;50.700;5.440;2023-07-29T00:58:24;99251.30;;;25.41;30.86
72024;BME280;59889;50.700;5.440;2023-07-29T01:00:50;99250.25;;;25.39;30.89
72024;BME280;59889;50.700;5.440;2023-07-29T01:03:16;99252.75;;;25.35;30.94
72024;BME280;59889;50.700;5.440;2023-07-29T01:05:50;99249.40;;;25.91;30.84
72024;BME280;59889;50.700;5.440;2023-07-29T01:08:15;99241.19;;;25.98;30.78
72024;BME280;59889;50.700;5.440;2023-07-29T01:10:40;99237.46;;;25.51;30.75
72024;BME280;59889;50.700;5.440;2023-07-29T01:13:05;99238.49;;;25.48;30.78
72024;BME280;59889;50.700;5.440;2023-07-29T01:15:31;99237.14;;;25.45;30.83
72024;BME280;59889;50.700;5.440;2023-07-29T01:17:54;99233.76;;;25.44;30.85
72024;BME280;59889;50.700;5.440;2023-07-29T01:20:17;99228.04;;;25.49;30.80
72024;BME280;59889;50.700;5.440;2023-07-29T01:22:43;99218.86;;;25.50;30.79
72024;BME280;59889;50.700;5.440;2023-07-29T01:25:08;99216.77;;;25.61;30.94
72024;BME280;59889;50.700;5.440;2023-07-29T01:27:34;99222.30;;;25.69;30.89
72024;BME280;59889;50.700;5.440;2023-07-29T01:30:01;99223.22;;;25.42;30.90
72024;BME280;59889;50.700;5.440;2023-07-29T01:32:32;99224.46;;;25.47;30.85
72024;BME280;59889;50.700;5.440;2023-07-29T01:34:58;99223.00;;;25.75;30.78
72024;BME280;59889;50.700;5.440;2023-07-29T01:37:19;99223.87;;;25.47;30.83
72024;BME280;59889;50.700;5.440;2023-07-29T01:39:45;99230.31;;;25.69;30.87
72024;BME280;59889;50.700;5.440;2023-07-29T01:42:09;99236.51;;;25.47;30.83
72024;BME280;59889;50.700;5.440;2023-07-29T01:44:35;99235.27;;;25.46;30.83
72024;BME280;59889;50.700;5.440;2023-07-29T01:47:01;99227.61;;;25.48;30.82
72024;BME280;59889;50.700;5.440;2023-07-29T01:49:27;99227.30;;;25.72;30.81
72024;BME280;59889;50.700;5.440;2023-07-29T01:51:53;99236.38;;;25.45;30.88
72024;BME280;59889;50.700;5.440;2023-07-29T01:54:18;99241.80;;;25.43;30.89
72024;BME280;59889;50.700;5.440;2023-07-29T01:56:44;99237.57;;;25.45;30.88
72024;BME280;59889;50.700;5.440;2023-07-29T01:59:10;99236.68;;;25.84;30.98
72024;BME280;59889;50.700;5.440;2023-07-29T02:01:36;99232.16;;;25.84;30.97
72024;BME280;59889;50.700;5.440;2023-07-29T02:04:02;99229.90;;;25.61;30.97
72024;BME280;59889;50.700;5.440;2023-07-29T02:06:28;99226.82;;;25.66;30.93
72024;BME280;59889;50.700;5.440;2023-07-29T02:08:55;99223.93;;;25.63;30.98
72024;BME280;59889;50.700;5.440;2023-07-29T02:11:19;99222.16;;;25.67;30.93
72024;BME280;59889;50.700;5.440;2023-07-29T02:13:45;99229.69;;;25.64;30.95
72024;BME280;59889;50.700;5.440;2023-07-29T02:16:11;99247.51;;;25.65;30.96
72024;BME280;59889;50.700;5.440;2023-07-29T02:18:37;99247.75;;;25.41;30.95
72024;BME280;59889;50.700;5.440;2023-07-29T02:21:03;99249.31;;;25.37;31.01
72024;BME280;59889;50.700;5.440;2023-07-29T02:23:28;99256.23;;;25.60;31.02
72024;BME280;59889;50.700;5.440;2023-07-29T02:25:54;99244.66;;;25.61;31.01
72024;BME280;59889;50.700;5.440;2023-07-29T02:28:20;99235.35;;;25.62;31.00
72024;BME280;59889;50.700;5.440;2023-07-29T02:30:46;99230.52;;;25.38;31.01
72024;BME280;59889;50.700;5.440;2023-07-29T02:33:12;99227.97;;;25.57;31.08
72024;BME280;59889;50.700;5.440;2023-07-29T02:35:38;99221.22;;;25.35;31.06
72024;BME280;59889;50.700;5.440;2023-07-29T02:38:04;99222.44;;;25.06;31.11
72024;BME280;59889;50.700;5.440;2023-07-29T02:40:29;99220.79;;;25.37;31.04
72024;BME280;59889;50.700;5.440;2023-07-29T02:42:55;99228.98;;;25.78;31.09
72024;BME280;59889;50.700;5.440;2023-07-29T02:45:21;99228.84;;;25.36;31.05
72024;BME280;59889;50.700;5.440;2023-07-29T02:47:47;99226.97;;;25.63;31.00
72024;BME280;59889;50.700;5.440;2023-07-29T02:50:13;99223.75;;;25.33;31.09
72024;BME280;59889;50.700;5.440;2023-07-29T02:52:39;99228.19;;;25.44;30.95
72024;BME280;59889;50.700;5.440;2023-07-29T02:55:06;99233.43;;;25.40;31.02
72024;BME280;59889;50.700;5.440;2023-07-29T02:57:30;99227.50;;;25.64;31.01
72024;BME280;59889;50.700;5.440;2023-07-29T02:59:56;99217.11;;;25.37;31.04
72024;BME280;59889;50.700;5.440;2023-07-29T03:02:22;99218.84;;;25.30;31.12
72024;BME280;59889;50.700;5.440;2023-07-29T03:04:48;99228.32;;;25.41;31.02
72024;BME280;59889;50.700;5.440;2023-07-29T03:07:14;99231.01;;;25.42;30.99
72024;BME280;59889;50.700;5.440;2023-07-29T03:09:40;99227.44;;;25.36;31.06
72024;BME280;59889;50.700;5.440;2023-07-29T03:12:06;99231.50;;;25.62;31.02
72024;BME280;59889;50.700;5.440;2023-07-29T03:14:31;99233.76;;;25.39;31.02
72024;BME280;59889;50.700;5.440;2023-07-29T03:16:57;99241.88;;;25.38;31.04
72024;BME280;59889;50.700;5.440;2023-07-29T03:19:23;99241.66;;;25.60;31.06
72024;BME280;59889;50.700;5.440;2023-07-29T03:21:49;99240.47;;;25.62;31.05
72024;BME280;59889;50.700;5.440;2023-07-29T03:24:15;99241.82;;;25.84;31.05
72024;BME280;59889;50.700;5.440;2023-07-29T03:26:40;99238.20;;;25.58;31.09
72024;BME280;59889;50.700;5.440;2023-07-29T03:29:06;99233.59;;;25.49;31.18
72024;BME280;59889;50.700;5.440;2023-07-29T03:31:32;99234.34;;;25.30;31.16
72024;BME280;59889;50.700;5.440;2023-07-29T03:33:58;99230.76;;;25.52;31.16
72024;BME280;59889;50.700;5.440;2023-07-29T03:36:24;99225.47;;;25.26;31.18
72024;BME280;59889;50.700;5.440;2023-07-29T03:38:50;99228.52;;;25.57;31.10
72024;BME280;59889;50.700;5.440;2023-07-29T03:41:16;99223.18;;;25.32;31.12
72024;BME280;59889;50.700;5.440;2023-07-29T03:43:41;99228.31;;;25.58;31.08
72024;BME280;59889;50.700;5.440;2023-07-29T03:46:07;99224.12;;;25.54;31.12
72024;BME280;59889;50.700;5.440;2023-07-29T03:48:33;99217.90;;;25.34;31.09
72024;BME280;59889;50.700;5.440;2023-07-29T03:50:59;99217.35;;;25.63;31.00
72024;BME280;59889;50.700;5.440;2023-07-29T03:53:25;99215.96;;;25.42;30.98
72024;BME280;59889;50.700;5.440;2023-07-29T03:55:51;99215.39;;;25.47;30.90
72024;BME280;59889;50.700;5.440;2023-07-29T03:58:17;99207.91;;;25.42;30.95
72024;BME280;59889;50.700;5.440;2023-07-29T04:00:42;99209.25;;;25.38;31.01
72024;BME280;59889;50.700;5.440;2023-07-29T04:03:08;99209.46;;;25.74;31.11
72024;BME280;59889;50.700;5.440;2023-07-29T04:05:34;99204.70;;;25.40;30.96
72024;BME280;59889;50.700;5.440;2023-07-29T04:08:00;99201.30;;;25.36;30.98
72024;BME280;59889;50.700;5.440;2023-07-29T04:10:26;99200.79;;;25.55;31.04
72024;BME280;59889;50.700;5.440;2023-07-29T04:12:52;99202.38;;;25.30;31.05
72024;BME280;59889;50.700;5.440;2023-07-29T04:15:17;99210.16;;;25.58;31.02
72024;BME280;59889;50.700;5.440;2023-07-29T04:17:43;99215.05;;;25.35;30.99
72024;BME280;59889;50.700;5.440;2023-07-29T04:20:10;99220.24;;;25.82;31.00
72024;BME280;59889;50.700;5.440;2023-07-29T04:22:35;99226.12;;;25.30;31.05
72024;BME280;59889;50.700;5.440;2023-07-29T04:25:01;99227.65;;;25.47;31.11
72024;BME280;59889;50.700;5.440;2023-07-29T04:27:27;99231.04;;;25.37;30.95
72024;BME280;59889;50.700;5.440;2023-07-29T04:29:52;99226.40;;;25.62;30.94
72024;BME280;59889;50.700;5.440;2023-07-29T04:32:18;99220.67;;;25.55;31.02
72024;BME280;59889;50.700;5.440;2023-07-29T04:34:44;99232.17;;;25.52;31.05
72024;BME280;59889;50.700;5.440;2023-07-29T04:37:10;99242.75;;;25.40;30.92
72024;BME280;59889;50.700;5.440;2023-07-29T04:39:35;99249.45;;;25.37;30.94
72024;BME280;59889;50.700;5.440;2023-07-29T04:42:01;99248.09;;;25.22;31.08
72024;BME280;59889;50.700;5.440;2023-07-29T04:44:26;99249.48;;;25.51;31.05
72024;BME280;59889;50.700;5.440;2023-07-29T04:46:52;99251.61;;;25.75;31.07
72024;BME280;59889;50.700;5.440;2023-07-29T04:49:18;99256.87;;;25.33;31.00
72024;BME280;59889;50.700;5.440;2023-07-29T04:51:44;99259.59;;;25.31;31.01
72024;BME280;59889;50.700;5.440;2023-07-29T04:54:10;99258.60;;;25.56;30.98
72024;BME280;59889;50.700;5.440;2023-07-29T04:56:36;99265.68;;;25.28;31.04
72024;BME280;59889;50.700;5.440;2023-07-29T04:59:01;99272.04;;;25.27;31.04
72024;BME280;59889;50.700;5.440;2023-07-29T05:01:27;99272.12;;;25.29;31.01
72024;BME280;59889;50.700;5.440;2023-07-29T05:03:53;99272.60;;;25.45;31.10
72024;BME280;59889;50.700;5.440;2023-07-29T05:06:19;99275.83;;;25.52;31.04
72024;BME280;59889;50.700;5.440;2023-07-29T05:08:45;99279.82;;;25.78;31.01
72024;BME280;59889;50.700;5.440;2023-07-29T05:11:11;99283.79;;;25.28;31.02
72024;BME280;59889;50.700;5.440;2023-07-29T05:13:37;99285.21;;;25.66;31.10
72024;BME280;59889;50.700;5.440;2023-07-29T05:16:03;99286.29;;;25.46;31.07
72024;BME280;59889;50.700;5.440;2023-07-29T05:18:28;99285.59;;;25.46;31.08
72024;BME280;59889;50.700;5.440;2023-07-29T05:20:54;99289.01;;;25.78;31.01
72024;BME280;59889;50.700;5.440;2023-07-29T05:23:20;99292.46;;;25.51;31.04
72024;BME280;59889;50.700;5.440;2023-07-29T05:25:46;99290.95;;;25.48;31.07
72024;BME280;59889;50.700;5.440;2023-07-29T05:28:12;99288.93;;;25.51;31.04
72024;BME280;59889;50.700;5.440;2023-07-29T05:30:38;99287.33;;;25.49;31.04
72024;BME280;59889;50.700;5.440;2023-07-29T05:33:04;99289.06;;;25.28;31.01
72024;BME280;59889;50.700;5.440;2023-07-29T05:35:29;99287.14;;;25.48;31.03
72024;BME280;59889;50.700;5.440;2023-07-29T05:37:55;99293.85;;;25.64;31.12
72024;BME280;59889;50.700;5.440;2023-07-29T05:40:21;99300.19;;;25.49;31.04
72024;BME280;59889;50.700;5.440;2023-07-29T05:42:47;99296.55;;;25.47;31.04
72024;BME280;59889;50.700;5.440;2023-07-29T05:45:13;99297.35;;;25.47;31.04
72024;BME280;59889;50.700;5.440;2023-07-29T05:47:39;99297.00;;;25.73;31.03
72024;BME280;59889;50.700;5.440;2023-07-29T05:50:05;99301.61;;;25.31;30.97
72024;BME280;59889;50.700;5.440;2023-07-29T05:52:30;99305.25;;;25.53;30.99
72024;BME280;59889;50.700;5.440;2023-07-29T05:54:56;99305.94;;;25.51;31.02
72024;BME280;59889;50.700;5.440;2023-07-29T05:57:22;99299.72;;;25.41;31.10
72024;BME280;59889;50.700;5.440;2023-07-29T05:59:48;99297.45;;;25.23;31.04
72024;BME280;59889;50.700;5.440;2023-07-29T06:02:14;99286.55;;;25.53;30.98
72024;BME280;59889;50.700;5.440;2023-07-29T06:04:39;99280.02;;;25.25;31.02
72024;BME280;59889;50.700;5.440;2023-07-29T06:07:06;99275.69;;;25.45;31.05
72024;BME280;59889;50.700;5.440;2023-07-29T06:09:31;99277.28;;;25.73;31.00
72024;BME280;59889;50.700;5.440;2023-07-29T06:11:57;99277.58;;;25.29;30.96
72024;BME280;59889;50.700;5.440;2023-07-29T06:14:23;99284.95;;;25.33;30.91
72024;BME280;59889;50.700;5.440;2023-07-29T06:16:49;99289.05;;;25.76;30.95
72024;BME280;59889;50.700;5.440;2023-07-29T06:19:14;99297.53;;;25.29;30.94
72024;BME280;59889;50.700;5.440;2023-07-29T06:21:40;99297.94;;;25.46;31.02
72024;BME280;59889;50.700;5.440;2023-07-29T06:24:06;99301.46;;;25.27;31.02
72024;BME280;59889;50.700;5.440;2023-07-29T06:26:32;99305.78;;;25.05;30.98
72024;BME280;59889;50.700;5.440;2023-07-29T06:28:58;99313.25;;;25.26;31.01
72024;BME280;59889;50.700;5.440;2023-07-29T06:31:24;99311.36;;;25.21;31.04
72024;BME280;59889;50.700;5.440;2023-07-29T06:33:49;99309.83;;;25.31;30.99
72024;BME280;59889;50.700;5.440;2023-07-29T06:36:15;99308.08;;;25.56;30.97
72024;BME280;59889;50.700;5.440;2023-07-29T06:38:41;99308.24;;;25.22;31.05
72024;BME280;59889;50.700;5.440;2023-07-29T06:41:07;99302.00;;;25.47;31.05
72024;BME280;59889;50.700;5.440;2023-07-29T06:43:33;99304.66;;;25.31;30.97
72024;BME280;59889;50.700;5.440;2023-07-29T06:45:59;99309.86;;;25.34;30.93
72024;BME280;59889;50.700;5.440;2023-07-29T06:48:25;99307.90;;;25.53;31.00
72024;BME280;59889;50.700;5.440;2023-07-29T06:50:50;99308.04;;;25.54;30.95
72024;BME280;59889;50.700;5.440;2023-07-29T06:53:16;99308.09;;;25.77;31.01
72024;BME280;59889;50.700;5.440;2023-07-29T06:55:42;99311.36;;;25.56;30.94
72024;BME280;59889;50.700;5.440;2023-07-29T06:58:08;99312.11;;;25.34;30.89
72024;BME280;59889;50.700;5.440;2023-07-29T07:00:34;99309.28;;;25.53;30.94
72024;BME280;59889;50.700;5.440;2023-07-29T07:03:00;99315.80;;;25.60;30.87
72024;BME280;59889;50.700;5.440;2023-07-29T07:05:25;99318.94;;;25.56;30.91
72024;BME280;59889;50.700;5.440;2023-07-29T07:07:51;99316.12;;;25.62;30.84
72024;BME280;59889;50.700;5.440;2023-07-29T07:10:18;99317.77;;;25.41;30.79
72024;BME280;59889;50.700;5.440;2023-07-29T07:12:43;99321.00;;;25.37;30.84
72024;BME280;59889;50.700;5.440;2023-07-29T07:15:09;99322.27;;;25.40;30.81
72024;BME280;59889;50.700;5.440;2023-07-29T07:17:35;99327.38;;;25.45;30.74
72024;BME280;59889;50.700;5.440;2023-07-29T07:20:01;99331.80;;;25.40;30.81
72024;BME280;59889;50.700;5.440;2023-07-29T07:22:26;99331.66;;;25.41;30.77
72024;BME280;59889;50.700;5.440;2023-07-29T07:24:52;99335.13;;;25.64;30.81
72024;BME280;59889;50.700;5.440;2023-07-29T07:27:18;99332.79;;;25.39;30.82
72024;BME280;59889;50.700;5.440;2023-07-29T07:29:44;99328.36;;;25.38;30.81
72024;BME280;59889;50.700;5.440;2023-07-29T07:32:10;99321.79;;;25.19;31.00
72024;BME280;59889;50.700;5.440;2023-07-29T07:34:36;99323.23;;;25.56;30.85
72024;BME280;59889;50.700;5.440;2023-07-29T07:37:02;99330.53;;;25.61;30.81
72024;BME280;59889;50.700;5.440;2023-07-29T07:39:27;99336.50;;;25.82;30.86
72024;BME280;59889;50.700;5.440;2023-07-29T07:41:53;99335.68;;;25.53;30.90
72024;BME280;59889;50.700;5.440;2023-07-29T07:44:19;99333.01;;;25.54;30.90
72024;BME280;59889;50.700;5.440;2023-07-29T07:46:45;99333.87;;;25.32;30.86
72024;BME280;59889;50.700;5.440;2023-07-29T07:49:11;99333.03;;;25.29;30.90
72024;BME280;59889;50.700;5.440;2023-07-29T07:51:37;99333.09;;;25.33;30.82
72024;BME280;59889;50.700;5.440;2023-07-29T07:54:02;99331.13;;;25.31;30.87
72024;BME280;59889;50.700;5.440;2023-07-29T07:56:28;99324.13;;;25.32;30.84
72024;BME280;59889;50.700;5.440;2023-07-29T07:58:54;99319.98;;;25.55;30.83
72024;BME280;59889;50.700;5.440;2023-07-29T08:01:20;99316.94;;;25.23;30.93
72024;BME280;59889;50.700;5.440;2023-07-29T08:03:46;99321.24;;;25.84;30.77
72024;BME280;59889;50.700;5.440;2023-07-29T08:06:12;99325.73;;;25.36;30.78
72024;BME280;59889;50.700;5.440;2023-07-29T08:08:38;99326.84;;;25.63;30.75
72024;BME280;59889;50.700;5.440;2023-07-29T08:11:03;99330.83;;;25.60;30.78
72024;BME280;59889;50.700;5.440;2023-07-29T08:13:29;99336.21;;;25.37;30.77
72024;BME280;59889;50.700;5.440;2023-07-29T08:15:55;99336.93;;;25.60;30.76
72024;BME280;59889;50.700;5.440;2023-07-29T08:18:21;99338.86;;;25.61;30.75
72024;BME280;59889;50.700;5.440;2023-07-29T08:20:52;99337.57;;;25.36;30.76
72024;BME280;59889;50.700;5.440;2023-07-29T08:23:13;99339.91;;;25.35;30.78
72024;BME280;59889;50.700;5.440;2023-07-29T08:25:38;99340.27;;;25.62;30.71
72024;BME280;59889;50.700;5.440;2023-07-29T08:28:04;99342.92;;;25.34;30.78
72024;BME280;59889;50.700;5.440;2023-07-29T08:30:30;99348.67;;;25.51;30.87
72024;BME280;59889;50.700;5.440;2023-07-29T08:32:56;99341.86;;;25.35;30.76
72024;BME280;59889;50.700;5.440;2023-07-29T08:35:22;99341.67;;;25.38;30.73
72024;BME280;59889;50.700;5.440;2023-07-29T08:37:48;99345.07;;;25.55;30.79
72024;BME280;59889;50.700;5.440;2023-07-29T08:40:14;99349.33;;;25.40;30.71
72024;BME280;59889;50.700;5.440;2023-07-29T08:42:40;99354.23;;;25.63;30.71
72024;BME280;59889;50.700;5.440;2023-07-29T08:45:07;99359.32;;;25.28;30.82
72024;BME280;59889;50.700;5.440;2023-07-29T08:47:31;99359.40;;;25.80;30.79
72024;BME280;59889;50.700;5.440;2023-07-29T08:49:58;99356.57;;;25.63;30.73
72024;BME280;59889;50.700;5.440;2023-07-29T08:52:23;99359.64;;;25.63;30.70
72024;BME280;59889;50.700;5.440;2023-07-29T08:54:49;99358.21;;;25.33;30.78
72024;BME280;59889;50.700;5.440;2023-07-29T08:57:15;99356.54;;;25.37;30.74
72024;BME280;59889;50.700;5.440;2023-07-29T08:59:40;99359.62;;;25.57;30.76
72024;BME280;59889;50.700;5.440;2023-07-29T09:02:07;99362.13;;;25.59;30.76
72024;BME280;59889;50.700;5.440;2023-07-29T09:04:32;99360.07;;;25.33;30.80
72024;BME280;59889;50.700;5.440;2023-07-29T09:06:59;99352.97;;;25.40;30.70
72024;BME280;59889;50.700;5.440;2023-07-29T09:09:25;99349.01;;;25.63;30.72
72024;BME280;59889;50.700;5.440;2023-07-29T09:11:50;99346.44;;;25.41;30.72
72024;BME280;59889;50.700;5.440;2023-07-29T09:14:16;99347.16;;;25.41;30.68
72024;BME280;59889;50.700;5.440;2023-07-29T09:16:41;99349.45;;;25.77;30.57
72024;BME280;59889;50.700;5.440;2023-07-29T09:19:07;99348.87;;;25.36;30.78
72024;BME280;59889;50.700;5.440;2023-07-29T09:21:33;99349.02;;;25.58;30.54
72024;BME280;59889;50.700;5.440;2023-07-29T09:24:03;99342.83;;;25.58;30.52
72024;BME280;59889;50.700;5.440;2023-07-29T09:26:26;99335.60;;;25.63;30.47
72024;BME280;59889;50.700;5.440;2023-07-29T09:28:52;99333.25;;;25.96;30.38
72024;BME280;59889;50.700;5.440;2023-07-29T09:31:19;99329.92;;;25.74;30.35
72024;BME280;59889;50.700;5.440;2023-07-29T09:33:42;99329.88;;;25.45;30.44
72024;BME280;59889;50.700;5.440;2023-07-29T09:36:09;99331.71;;;25.66;30.48
72024;BME280;59889;50.700;5.440;2023-07-29T09:38:34;99334.18;;;25.85;30.26
72024;BME280;59889;50.700;5.440;2023-07-29T09:41:00;99333.60;;;25.77;30.33
72024;BME280;59889;50.700;5.440;2023-07-29T09:43:29;99332.66;;;25.71;30.42
72024;BME280;59889;50.700;5.440;2023-07-29T09:45:52;99333.51;;;25.82;30.30
72024;BME280;59889;50.700;5.440;2023-07-29T09:48:19;99337.37;;;25.78;30.37
72024;BME280;59889;50.700;5.440;2023-07-29T09:50:43;99331.71;;;25.84;30.32
72024;BME280;59889;50.700;5.440;2023-07-29T09:53:09;99332.72;;;25.70;30.45
72024;BME280;59889;50.700;5.440;2023-07-29T09:55:35;99337.61;;;25.56;30.36
72024;BME280;59889;50.700;5.440;2023-07-29T09:58:01;99334.47;;;25.73;30.44
72024;BME280;59889;50.700;5.440;2023-07-29T10:00:28;99335.66;;;25.71;30.46
72024;BME280;59889;50.700;5.440;2023-07-29T10:02:52;99334.52;;;25.54;30.40
72024;BME280;59889;50.700;5.440;2023-07-29T10:05:20;99331.98;;;25.86;30.33
72024;BME280;59889;50.700;5.440;2023-07-29T10:07:44;99327.86;;;25.86;30.32
72024;BME280;59889;50.700;5.440;2023-07-29T10:10:11;99326.17;;;25.82;30.36
72024;BME280;59889;50.700;5.440;2023-07-29T10:12:36;99324.12;;;25.98;30.46
72024;BME280;59889;50.700;5.440;2023-07-29T10:15:04;99325.93;;;25.76;30.43
72024;BME280;59889;50.700;5.440;2023-07-29T10:17:28;99320.54;;;25.78;30.43
72024;BME280;59889;50.700;5.440;2023-07-29T10:19:55;99315.31;;;25.78;30.42
72024;BME280;59889;50.700;5.440;2023-07-29T10:22:20;99314.35;;;25.73;30.49
72024;BME280;59889;50.700;5.440;2023-07-29T10:24:47;99314.47;;;25.78;30.43
72024;BME280;59889;50.700;5.440;2023-07-29T10:27:11;99321.78;;;25.78;30.44
72024;BME280;59889;50.700;5.440;2023-07-29T10:29:38;99322.05;;;25.67;30.54
72024;BME280;59889;50.700;5.440;2023-07-29T10:32:04;99324.75;;;25.72;30.54
72024;BME280;59889;50.700;5.440;2023-07-29T10:34:29;99325.94;;;25.54;30.44
72024;BME280;59889;50.700;5.440;2023-07-29T10:36:54;99322.72;;;25.74;30.52
72024;BME280;59889;50.700;5.440;2023-07-29T10:39:20;99319.73;;;25.95;30.53
72024;BME280;59889;50.700;5.440;2023-07-29T10:41:55;99318.92;;;25.72;30.55
72024;BME280;59889;50.700;5.440;2023-07-29T10:46:37;99314.35;;;25.73;30.51
72024;BME280;59889;50.700;5.440;2023-07-29T10:49:03;99312.33;;;25.65;30.60
72024;BME280;59889;50.700;5.440;2023-07-29T10:51:31;99312.89;;;25.77;30.47
72024;BME280;59889;50.700;5.440;2023-07-29T10:53:57;99311.38;;;25.72;30.53
72024;BME280;59889;50.700;5.440;2023-07-29T10:56:26;99306.86;;;25.62;30.62
72024;BME280;59889;50.700;5.440;2023-07-29T10:58:47;99300.38;;;26.20;30.53
72024;BME280;59889;50.700;5.440;2023-07-29T11:01:13;99304.45;;;25.79;30.44
72024;BME280;59889;50.700;5.440;2023-07-29T11:03:38;99312.50;;;25.73;30.50
72024;BME280;59889;50.700;5.440;2023-07-29T11:06:04;99307.53;;;25.76;30.50
72024;BME280;59889;50.700;5.440;2023-07-29T11:08:30;99296.16;;;25.77;30.49
72024;BME280;59889;50.700;5.440;2023-07-29T11:10:59;99291.10;;;25.69;30.57
72024;BME280;59889;50.700;5.440;2023-07-29T11:13:22;99288.02;;;25.65;30.62
72024;BME280;59889;50.700;5.440;2023-07-29T11:15:49;99280.59;;;25.70;30.59
72024;BME280;59889;50.700;5.440;2023-07-29T11:18:14;99264.84;;;25.73;30.54
72024;BME280;59889;50.700;5.440;2023-07-29T11:20:39;99257.41;;;25.81;30.45
72024;BME280;59889;50.700;5.440;2023-07-29T11:23:05;99256.67;;;25.54;30.50
72024;BME280;59889;50.700;5.440;2023-07-29T11:25:31;99258.05;;;25.71;30.57
72024;BME280;59889;50.700;5.440;2023-07-29T11:27:58;99265.73;;;25.80;30.46
72024;BME280;59889;50.700;5.440;2023-07-29T11:30:23;99269.13;;;25.55;30.49
72024;BME280;59889;50.700;5.440;2023-07-29T11:32:49;99274.61;;;25.75;30.54
72024;BME280;59889;50.700;5.440;2023-07-29T11:35:15;99272.46;;;25.78;30.53
72024;BME280;59889;50.700;5.440;2023-07-29T11:37:43;99268.64;;;25.71;30.59
72024;BME280;59889;50.700;5.440;2023-07-29T11:40:07;99275.24;;;25.77;30.53
72024;BME280;59889;50.700;5.440;2023-07-29T11:42:32;99286.85;;;25.70;30.62
72024;BME280;59889;50.700;5.440;2023-07-29T11:44:58;99296.27;;;25.49;30.59
72024;BME280;59889;50.700;5.440;2023-07-29T11:47:24;99292.39;;;25.62;30.70
72024;BME280;59889;50.700;5.440;2023-07-29T11:49:49;99283.93;;;25.53;30.54
72024;BME280;59889;50.700;5.440;2023-07-29T11:52:16;99287.27;;;25.64;30.66
72024;BME280;59889;50.700;5.440;2023-07-29T11:54:41;99298.97;;;25.64;30.69
72024;BME280;59889;50.700;5.440;2023-07-29T11:57:08;99300.96;;;25.63;30.69
72024;BME280;59889;50.700;5.440;2023-07-29T11:59:34;99305.61;;;25.64;30.71
72024;BME280;59889;50.700;5.440;2023-07-29T12:01:59;99293.87;;;25.63;30.71
72024;BME280;59889;50.700;5.440;2023-07-29T12:04:24;99302.09;;;25.65;30.67
72024;BME280;59889;50.700;5.440;2023-07-29T12:06:50;99289.82;;;25.68;30.66
72024;BME280;59889;50.700;5.440;2023-07-29T12:09:16;99281.70;;;25.80;30.54
72024;BME280;59889;50.700;5.440;2023-07-29T12:11:42;99265.76;;;25.74;30.58
72024;BME280;59889;50.700;5.440;2023-07-29T12:14:08;99275.67;;;25.66;30.72
72024;BME280;59889;50.700;5.440;2023-07-29T12:16:40;99290.46;;;25.90;30.47
72024;BME280;59889;50.700;5.440;2023-07-29T12:19:00;99298.77;;;25.86;30.50
72024;BME280;59889;50.700;5.440;2023-07-29T12:21:25;99301.08;;;25.90;30.47
72024;BME280;59889;50.700;5.440;2023-07-29T12:23:51;99294.00;;;25.82;30.58
72024;BME280;59889;50.700;5.440;2023-07-29T12:26:17;99298.06;;;25.67;30.49
72024;BME280;59889;50.700;5.440;2023-07-29T12:28:46;99299.92;;;25.93;30.47
72024;BME280;59889;50.700;5.440;2023-07-29T12:31:09;99297.92;;;25.96;30.44
72024;BME280;59889;50.700;5.440;2023-07-29T12:33:36;99299.32;;;25.51;30.70
72024;BME280;59889;50.700;5.440;2023-07-29T12:36:01;99293.93;;;25.89;30.52
72024;BME280;59889;50.700;5.440;2023-07-29T12:38:27;99288.73;;;25.92;30.50
72024;BME280;59889;50.700;5.440;2023-07-29T12:40:52;99285.67;;;25.94;30.51
72024;BME280;59889;50.700;5.440;2023-07-29T12:43:18;99283.59;;;26.06;30.40
72024;BME280;59889;50.700;5.440;2023-07-29T12:45:44;99275.69;;;25.83;30.38
72024;BME280;59889;50.700;5.440;2023-07-29T12:48:10;99274.14;;;26.01;30.46
72024;BME280;59889;50.700;5.440;2023-07-29T12:50:36;99273.99;;;25.76;30.52
72024;BME280;59889;50.700;5.440;2023-07-29T12:53:01;99272.55;;;25.98;30.54